createdAt,value
2019-02-12T00:00:15.735Z,101810.30
2019-02-12T00:02:44.305Z,101816.41
2019-02-12T00:05:12.906Z,101814.61
2019-02-12T00:07:41.397Z,101806.93
2019-02-12T00:10:09.882Z,101809.48
2019-02-12T00:12:38.331Z,101806.34
2019-02-12T00:15:07.216Z,101810.19
2019-02-12T00:17:35.724Z,101823.80
2019-02-12T00:20:04.827Z,101815.52
2019-02-12T00:22:33.355Z,101810.28
2019-02-12T00:25:01.842Z,101813.73
2019-02-12T00:27:30.323Z,101822.61
2019-02-12T00:29:58.784Z,101824.38
2019-02-12T00:32:27.262Z,101822.61
2019-02-12T00:34:55.725Z,101822.30
2019-02-12T00:37:24.186Z,101820.64
2019-02-12T00:39:52.684Z,101822.41
2019-02-12T00:42:21.299Z,101833.05
2019-02-12T00:44:49.773Z,101832.17
2019-02-12T00:47:18.270Z,101836.49
2019-02-12T00:49:46.723Z,101836.97
2019-02-12T00:52:15.175Z,101837.08
2019-02-12T00:54:43.689Z,101841.44
2019-02-12T00:57:12.146Z,101848.33
2019-02-12T00:59:40.601Z,101837.38
2019-02-12T01:02:09.151Z,101850.67
2019-02-12T01:04:37.629Z,101855.03
2019-02-12T01:07:06.362Z,101861.52
2019-02-12T01:09:34.855Z,101865.87
2019-02-12T01:12:03.318Z,101870.70
2019-02-12T01:14:31.780Z,101885.86
2019-02-12T01:17:00.300Z,101877.89
2019-02-12T01:19:28.741Z,101882.32
2019-02-12T01:21:57.192Z,101881.63
2019-02-12T01:24:25.689Z,101890.38
2019-02-12T01:26:54.149Z,101851.47
2019-02-12T01:29:22.610Z,101890.89
2019-02-12T01:31:51.117Z,101893.86
2019-02-12T01:34:19.617Z,101893.46
2019-02-12T01:36:48.065Z,101890.50
2019-02-12T01:39:16.539Z,101893.86
2019-02-12T01:41:44.989Z,101889.50
2019-02-12T01:44:13.438Z,101897.59
2019-02-12T01:46:41.945Z,101917.22
2019-02-12T01:49:10.420Z,101901.25
2019-02-12T01:51:38.855Z,101902.91
2019-02-12T01:54:07.348Z,101908.03
2019-02-12T01:56:35.801Z,101915.23
2019-02-12T01:59:04.411Z,101890.01
2019-02-12T02:01:32.924Z,101912.08
2019-02-12T02:04:05.517Z,101920.94
2019-02-12T02:06:33.941Z,101926.87
2019-02-12T02:09:04.975Z,101922.43
2019-02-12T02:11:33.429Z,101919.76
2019-02-12T02:14:01.882Z,101937.22
2019-02-12T02:16:30.363Z,101939.78
2019-02-12T02:18:58.812Z,101932.38
2019-02-12T02:21:27.279Z,101930.10
2019-02-12T02:23:55.749Z,101934.75
2019-02-12T02:26:24.208Z,101932.88
2019-02-12T02:28:52.672Z,101918.59
2019-02-12T02:31:21.170Z,101918.00
2019-02-12T02:33:49.631Z,101933.37
2019-02-12T02:36:18.093Z,101940.34
2019-02-12T02:38:46.582Z,101947.55
2019-02-12T02:41:15.031Z,101941.31
2019-02-12T02:43:43.488Z,101941.60
2019-02-12T02:46:12.001Z,101937.56
2019-02-12T02:48:40.454Z,101949.77
2019-02-12T02:51:08.921Z,101959.42
2019-02-12T02:53:37.414Z,101960.62
2019-02-12T02:56:05.871Z,101950.66
2019-02-12T02:58:34.335Z,101953.11
2019-02-12T03:01:02.882Z,101954.67
2019-02-12T03:03:31.346Z,101963.92
2019-02-12T03:05:59.807Z,101966.00
2019-02-12T03:08:28.323Z,101971.52
2019-02-12T03:10:57.823Z,101978.69
2019-02-12T03:13:26.284Z,101979.00
2019-02-12T03:15:54.784Z,101975.84
2019-02-12T03:18:23.234Z,101975.33
2019-02-12T03:20:51.681Z,101988.92
2019-02-12T03:23:20.179Z,101991.77
2019-02-12T03:25:48.618Z,101988.61
2019-02-12T03:28:17.088Z,101998.73
2019-02-12T03:30:45.637Z,101996.08
2019-02-12T03:33:14.097Z,101996.84
2019-02-12T03:35:42.546Z,101995.48
2019-02-12T03:38:11.026Z,101990.36
2019-02-12T03:40:39.492Z,101985.24
2019-02-12T03:43:07.947Z,101978.73
2019-02-12T03:45:36.439Z,101980.80
2019-02-12T03:48:04.904Z,101983.36
2019-02-12T03:50:33.399Z,101975.56
2019-02-12T03:53:01.869Z,101969.05
2019-02-12T03:55:30.330Z,101974.56
2019-02-12T03:57:58.776Z,101974.56
2019-02-12T04:00:27.275Z,101968.17
2019-02-12T04:03:04.170Z,101978.41
2019-02-12T04:05:33.294Z,101986.88
2019-02-12T04:08:02.160Z,101980.09
2019-02-12T04:10:30.609Z,101972.29
2019-02-12T04:13:00.455Z,101989.84
2019-02-12T04:15:28.903Z,101987.37
2019-02-12T04:17:57.373Z,101990.32
2019-02-12T04:20:25.854Z,102004.88
2019-02-12T04:22:54.325Z,101996.72
2019-02-12T04:25:22.789Z,102001.05
2019-02-12T04:27:51.286Z,102002.84
2019-02-12T04:30:19.739Z,102011.28
2019-02-12T04:32:48.227Z,102012.20
2019-02-12T04:35:16.697Z,102017.69
2019-02-12T04:37:45.147Z,102021.16
2019-02-12T04:40:15.707Z,102031.77
2019-02-12T04:42:44.214Z,102046.23
2019-02-12T04:45:12.676Z,102064.28
2019-02-12T04:47:41.136Z,102074.60
2019-02-12T04:50:12.813Z,102077.56
2019-02-12T04:52:41.278Z,102080.12
2019-02-12T04:55:11.286Z,102074.13
2019-02-12T04:57:39.787Z,102082.20
2019-02-12T05:00:12.367Z,102086.80
2019-02-12T05:02:40.818Z,102084.63
2019-02-12T05:05:10.376Z,102092.71
2019-02-12T05:07:44.572Z,102095.27
2019-02-12T05:10:19.533Z,102094.39
2019-02-12T05:12:47.989Z,102104.63
2019-02-12T05:15:16.707Z,102104.11
2019-02-12T05:17:45.203Z,102110.14
2019-02-12T05:20:14.706Z,102112.09
2019-02-12T05:22:43.960Z,102117.98
2019-02-12T05:25:12.538Z,102120.94
2019-02-12T05:27:41.011Z,102136.56
2019-02-12T05:30:11.598Z,102129.68
2019-02-12T05:32:40.097Z,102125.84
2019-02-12T05:35:08.564Z,102132.64
2019-02-12T05:37:37.016Z,102130.44
2019-02-12T05:40:11.981Z,102129.47
2019-02-12T05:42:40.498Z,102134.95
2019-02-12T05:45:11.382Z,102136.62
2019-02-12T05:47:39.885Z,102143.82
2019-02-12T05:50:11.379Z,102148.81
2019-02-12T05:52:39.829Z,102164.57
2019-02-12T05:55:08.445Z,102167.92
2019-02-12T05:57:36.894Z,102165.72
2019-02-12T06:00:11.474Z,102163.56
2019-02-12T06:02:39.961Z,102168.56
2019-02-12T06:05:08.498Z,102178.80
2019-02-12T06:07:36.957Z,102193.27
2019-02-12T06:10:08.874Z,102199.17
2019-02-12T06:12:37.324Z,102200.72
2019-02-12T06:15:06.731Z,102219.42
2019-02-12T06:17:37.344Z,102226.98
2019-02-12T06:20:07.543Z,102219.08
2019-02-12T06:22:36.000Z,102226.23
2019-02-12T06:25:07.957Z,102234.70
2019-02-12T06:27:36.096Z,102226.55
2019-02-12T06:30:06.585Z,102228.58
2019-02-12T06:32:35.077Z,102230.25
2019-02-12T06:35:03.984Z,102239.38
2019-02-12T06:37:32.439Z,102243.22
2019-02-12T06:40:00.935Z,102251.26
2019-02-12T06:42:29.387Z,102254.73
2019-02-12T06:44:57.857Z,102259.85
2019-02-12T06:47:26.357Z,102264.57
2019-02-12T06:49:54.891Z,102265.45
2019-02-12T06:52:23.325Z,102269.69
2019-02-12T06:54:51.824Z,102273.63
2019-02-12T06:57:20.283Z,102277.86
2019-02-12T06:59:48.734Z,102273.13
2019-02-12T07:02:53.529Z,102279.92
2019-02-12T07:05:21.996Z,102287.69
2019-02-12T07:08:13.240Z,102288.31
2019-02-12T07:10:41.693Z,102289.59
2019-02-12T07:13:13.312Z,102290.87
2019-02-12T07:15:41.792Z,102295.23
2019-02-12T07:18:32.139Z,102304.58
2019-02-12T07:21:15.611Z,102302.11
2019-02-12T07:24:02.461Z,102300.44
2019-02-12T07:26:56.385Z,102304.80
2019-02-12T07:29:30.975Z,102317.69
2019-02-12T07:32:05.492Z,102318.09
2019-02-12T07:34:42.726Z,102321.66
2019-02-12T07:37:23.240Z,102324.34
2019-02-12T07:40:00.672Z,102324.56
2019-02-12T07:43:03.355Z,102328.50
2019-02-12T07:45:43.962Z,102326.95
2019-02-12T07:48:21.325Z,102330.79
2019-02-12T07:51:17.412Z,102336.70
2019-02-12T07:53:51.618Z,102345.66
2019-02-12T07:56:25.814Z,102348.22
2019-02-12T07:59:06.319Z,102347.33
2019-02-12T08:01:55.944Z,102351.17
2019-02-12T08:04:42.525Z,102363.05
2019-02-12T08:07:28.948Z,102372.26
2019-02-12T08:10:11.913Z,102380.16
2019-02-12T08:12:55.789Z,102395.08
2019-02-12T08:15:56.180Z,102391.98
2019-02-12T08:18:47.481Z,102394.11
2019-02-12T08:21:28.207Z,102399.71
2019-02-12T08:24:16.444Z,102408.33
2019-02-12T08:27:09.120Z,102413.92
2019-02-12T08:30:06.274Z,102416.84
2019-02-12T08:32:43.640Z,102429.69
2019-02-12T08:35:39.451Z,102438.61
2019-02-12T08:38:29.212Z,102433.07
2019-02-12T08:41:15.700Z,102436.08
2019-02-12T08:44:02.273Z,102433.95
2019-02-12T08:46:33.899Z,102442.50
2019-02-12T08:49:08.255Z,102439.36
2019-02-12T08:51:51.966Z,102443.95
2019-02-12T08:54:49.161Z,102437.36
2019-02-12T08:57:23.362Z,102448.35
2019-02-12T09:00:17.375Z,102445.73
2019-02-12T09:02:51.707Z,102445.95
2019-02-12T09:05:32.259Z,102451.54
2019-02-12T09:08:12.899Z,102453.52
2019-02-12T09:10:44.563Z,102456.82
2019-02-12T09:13:34.190Z,102467.02
2019-02-12T09:16:30.656Z,102471.20
2019-02-12T09:19:07.878Z,102484.45
2019-02-12T09:22:14.364Z,102484.45
2019-02-12T09:25:04.135Z,102493.61
2019-02-12T09:28:04.370Z,102492.15
2019-02-12T09:30:58.445Z,102496.61
2019-02-12T09:33:47.920Z,102501.06
2019-02-12T09:36:49.844Z,102505.13
2019-02-12T09:39:33.551Z,102502.69
2019-02-12T09:42:08.171Z,102512.20
2019-02-12T09:44:55.062Z,102512.20
2019-02-12T09:47:41.254Z,102519.56
2019-02-12T09:50:21.677Z,102519.56
2019-02-12T09:53:08.128Z,102518.09
2019-02-12T09:55:48.611Z,102534.04
2019-02-12T09:58:38.233Z,102534.04
2019-02-12T10:01:28.056Z,102535.05
2019-02-12T10:04:11.894Z,102544.17
2019-02-12T10:06:46.446Z,102553.55
2019-02-12T10:09:18.074Z,102553.55
2019-02-12T10:12:07.883Z,102552.98
2019-02-12T10:14:57.898Z,102554.89
2019-02-12T10:17:46.526Z,102546.11
2019-02-12T10:20:18.169Z,102546.11
2019-02-12T10:22:56.638Z,102547.44
2019-02-12T10:25:25.526Z,102553.11
2019-02-12T10:28:30.448Z,102557.41
2019-02-12T10:31:02.106Z,102553.95
2019-02-12T10:33:30.569Z,102553.95
2019-02-12T10:35:59.069Z,102565.96
2019-02-12T10:38:27.517Z,102564.08
2019-02-12T10:40:55.976Z,102564.08
2019-02-12T10:43:24.524Z,102567.45
2019-02-12T10:45:53.050Z,102568.38
2019-02-12T10:48:21.522Z,102577.37
2019-02-12T10:50:50.016Z,102577.97
2019-02-12T10:53:18.485Z,102579.09
2019-02-12T10:55:46.939Z,102570.58
2019-02-12T10:58:16.348Z,102580.17
2019-02-12T11:00:44.801Z,102582.86
2019-02-12T11:03:13.255Z,102588.69
2019-02-12T11:05:41.805Z,102580.98
2019-02-12T11:08:10.265Z,102587.32
2019-02-12T11:10:38.726Z,102586.95
2019-02-12T11:13:07.224Z,102593.58
2019-02-12T11:15:35.688Z,102590.41
2019-02-12T11:18:04.140Z,102593.21
2019-02-12T11:20:32.705Z,102586.27
2019-02-12T11:23:02.837Z,102596.38
2019-02-12T11:25:31.306Z,102597.27
2019-02-12T11:27:59.813Z,102594.41
2019-02-12T11:30:28.346Z,102596.70
2019-02-12T11:32:56.796Z,102600.63
2019-02-12T11:35:25.287Z,102598.58
2019-02-12T11:37:53.741Z,102603.92
2019-02-12T11:40:22.192Z,102613.61
2019-02-12T11:42:50.683Z,102610.94
2019-02-12T11:45:19.142Z,102622.06
2019-02-12T11:47:47.592Z,102618.11
2019-02-12T11:50:16.051Z,102612.68
2019-02-12T11:52:44.509Z,102620.88
2019-02-12T11:55:14.399Z,102611.99
2019-02-12T11:57:42.890Z,102616.33
2019-02-12T12:00:17.833Z,102618.51
2019-02-12T12:02:46.304Z,102632.26
2019-02-12T12:05:14.804Z,102634.26
2019-02-12T12:07:43.257Z,102624.16
2019-02-12T12:10:12.280Z,102624.96
2019-02-12T12:12:40.765Z,102623.67
2019-02-12T12:15:15.980Z,102637.83
2019-02-12T12:17:44.424Z,102642.58
2019-02-12T12:20:14.264Z,102643.06
2019-02-12T12:22:42.864Z,102654.06
2019-02-12T12:25:12.670Z,102641.71
2019-02-12T12:27:41.157Z,102650.72
2019-02-12T12:30:14.694Z,102647.74
2019-02-12T12:32:43.214Z,102652.01
2019-02-12T12:35:12.356Z,102646.86
2019-02-12T12:37:40.808Z,102651.09
2019-02-12T12:40:11.410Z,102654.95
2019-02-12T12:42:39.926Z,102657.52
2019-02-12T12:45:13.476Z,102667.05
2019-02-12T12:47:41.915Z,102667.64
2019-02-12T12:50:13.816Z,102675.16
2019-02-12T12:52:42.252Z,102674.77
2019-02-12T12:55:11.036Z,102686.94
2019-02-12T12:57:41.988Z,102679.73
2019-02-12T13:00:14.871Z,102678.84
2019-02-12T13:02:43.359Z,102682.31
2019-02-12T13:05:11.813Z,102694.78
2019-02-12T13:07:40.269Z,102694.78
2019-02-12T13:10:16.786Z,102693.98
2019-02-12T13:12:45.246Z,102701.81
2019-02-12T13:15:15.036Z,102698.15
2019-02-12T13:17:43.519Z,102697.27
2019-02-12T13:20:17.266Z,102705.98
2019-02-12T13:22:45.732Z,102695.57
2019-02-12T13:25:14.539Z,102696.77
2019-02-12T13:27:42.990Z,102706.89
2019-02-12T13:30:14.617Z,102689.87
2019-02-12T13:32:43.100Z,102695.80
2019-02-12T13:35:12.015Z,102695.59
2019-02-12T13:37:40.548Z,102699.97
2019-02-12T13:40:11.441Z,102709.95
2019-02-12T13:42:39.897Z,102707.01
2019-02-12T13:45:11.255Z,102709.95
2019-02-12T13:47:39.746Z,102716.02
2019-02-12T13:50:09.632Z,102727.21
2019-02-12T13:52:38.146Z,102724.23
2019-02-12T13:55:16.949Z,102726.70
2019-02-12T13:57:39.520Z,102723.23
2019-02-12T14:00:15.876Z,102725.81
2019-02-12T14:02:44.326Z,102734.05
2019-02-12T14:05:15.689Z,102739.98
2019-02-12T14:07:44.186Z,102744.24
2019-02-12T14:10:12.640Z,102739.50
2019-02-12T14:12:41.084Z,102716.08
2019-02-12T14:15:14.025Z,102744.82
2019-02-12T14:17:42.513Z,102749.20
2019-02-12T14:20:15.127Z,102748.20
2019-02-12T14:22:43.621Z,102745.22
2019-02-12T14:25:13.514Z,102750.38
2019-02-12T14:27:42.987Z,102754.64
2019-02-12T14:30:13.907Z,102748.60
2019-02-12T14:32:42.359Z,102747.20
2019-02-12T14:35:12.049Z,102752.55
2019-02-12T14:37:40.549Z,102761.45
2019-02-12T14:40:13.737Z,102765.52
2019-02-12T14:42:42.200Z,102766.58
2019-02-12T14:45:16.236Z,102770.76
2019-02-12T14:47:44.706Z,102762.80
2019-02-12T14:50:18.045Z,102766.87
2019-02-12T14:52:46.549Z,102761.80
2019-02-12T14:55:15.049Z,102759.03
2019-02-12T14:57:43.499Z,102759.59
2019-02-12T15:00:19.124Z,102763.74
2019-02-12T15:02:47.582Z,102761.85
2019-02-12T15:05:16.035Z,102761.53
2019-02-12T15:07:44.522Z,102764.42
2019-02-12T15:10:14.126Z,102768.05
2019-02-12T15:12:42.585Z,102766.56
2019-02-12T15:15:11.616Z,102761.49
2019-02-12T15:17:40.066Z,102763.06
2019-02-12T15:20:12.589Z,102763.06
2019-02-12T15:22:41.153Z,102757.23
2019-02-12T15:25:12.928Z,102763.90
2019-02-12T15:27:41.381Z,102763.90
2019-02-12T15:30:12.907Z,102763.90
2019-02-12T15:32:41.378Z,102770.13
2019-02-12T15:35:10.772Z,102772.77
2019-02-12T15:37:39.256Z,102772.77
2019-02-12T15:40:13.225Z,102764.61
2019-02-12T15:42:41.831Z,102785.98
2019-02-12T15:45:13.125Z,102783.29
2019-02-12T15:47:41.596Z,102776.38
2019-02-12T15:50:11.385Z,102783.06
2019-02-12T15:52:39.944Z,102795.67
2019-02-12T15:55:10.912Z,102792.56
2019-02-12T15:57:40.592Z,102792.56
2019-02-12T16:00:12.769Z,102801.07
2019-02-12T16:02:41.219Z,102791.61
2019-02-12T16:05:12.440Z,102803.30
2019-02-12T16:07:42.541Z,102800.43
2019-02-12T16:10:19.639Z,102807.68
2019-02-12T16:12:49.464Z,102807.68
2019-02-12T16:15:21.866Z,102813.27
2019-02-12T16:17:49.553Z,102820.52
2019-02-12T16:20:18.052Z,102820.53
2019-02-12T16:22:46.517Z,102820.53
2019-02-12T16:25:15.567Z,102818.01
2019-02-12T16:27:44.206Z,102823.12
2019-02-12T16:30:19.041Z,102828.30
2019-02-12T16:32:47.500Z,102824.77
2019-02-12T16:35:17.982Z,102830.61
2019-02-12T16:37:46.436Z,102835.66
2019-02-12T16:40:15.912Z,102835.66
2019-02-12T16:42:44.410Z,102836.53
2019-02-12T16:45:36.671Z,102836.53
2019-02-12T16:48:05.176Z,102831.70
2019-02-12T16:50:33.632Z,102845.36
2019-02-12T16:53:02.088Z,102837.59
2019-02-12T16:55:30.564Z,102837.59
2019-02-12T16:57:59.022Z,102841.97
2019-02-12T17:00:27.473Z,102849.20
2019-02-12T17:02:55.972Z,102850.91
2019-02-12T17:05:24.415Z,102852.32
2019-02-12T17:07:52.858Z,102850.18
2019-02-12T17:10:21.344Z,102848.92
2019-02-12T17:12:49.793Z,102856.11
2019-02-12T17:15:18.250Z,102855.64
2019-02-12T17:17:46.747Z,102858.88
2019-02-12T17:20:20.797Z,102860.18
2019-02-12T17:22:49.305Z,102863.66
2019-02-12T17:25:17.759Z,102863.67
2019-02-12T17:27:48.018Z,102862.41
2019-02-12T17:30:17.771Z,102864.98
2019-02-12T17:32:46.516Z,102857.96
2019-02-12T17:35:15.054Z,102864.62
2019-02-12T17:37:43.555Z,102865.91
2019-02-12T17:40:16.565Z,102870.27
2019-02-12T17:42:45.008Z,102869.88
2019-02-12T17:45:15.137Z,102869.89
2019-02-12T17:47:43.594Z,102875.66
2019-02-12T17:50:15.993Z,102874.03
2019-02-12T17:52:44.578Z,102866.45
2019-02-12T17:55:13.028Z,102875.67
2019-02-12T17:57:41.555Z,102874.67
2019-02-12T18:00:14.560Z,102873.90
2019-02-12T18:02:43.023Z,102880.55
2019-02-12T18:05:11.465Z,102870.56
2019-02-12T18:07:39.977Z,102872.88
2019-02-12T18:10:10.467Z,102876.97
2019-02-12T18:12:38.940Z,102872.88
2019-02-12T18:15:12.161Z,102880.81
2019-02-12T18:17:40.623Z,102878.89
2019-02-12T18:20:17.288Z,102882.09
2019-02-12T18:22:45.755Z,102881.20
2019-02-12T18:25:14.213Z,102881.30
2019-02-12T18:27:42.708Z,102877.75
2019-02-12T18:30:16.108Z,102884.01
2019-02-12T18:32:44.589Z,102882.58
2019-02-12T18:35:14.034Z,102876.58
2019-02-12T18:37:42.496Z,102879.77
2019-02-12T18:40:14.844Z,102871.98
2019-02-12T18:42:43.355Z,102873.27
2019-02-12T18:45:23.142Z,102867.23
2019-02-12T18:47:51.636Z,102868.01
2019-02-12T18:50:20.086Z,102866.23
2019-02-12T18:52:48.553Z,102870.81
2019-02-12T18:55:17.214Z,102873.38
2019-02-12T18:57:45.740Z,102875.54
2019-02-12T19:00:22.537Z,102876.47
2019-02-12T19:02:51.029Z,102876.57
2019-02-12T19:05:19.535Z,102871.45
2019-02-12T19:07:48.041Z,102866.98
2019-02-12T19:10:19.599Z,102864.03
2019-02-12T19:12:48.050Z,102865.06
2019-02-12T19:15:21.153Z,102862.64
2019-02-12T19:18:11.208Z,102866.73
2019-02-12T19:20:39.975Z,102865.59
2019-02-12T19:23:08.446Z,102871.98
2019-02-12T19:25:36.882Z,102872.23
2019-02-12T19:28:05.380Z,102868.25
2019-02-12T19:30:33.827Z,102873.77
2019-02-12T19:33:02.277Z,102879.27
2019-02-12T19:35:31.757Z,102885.28
2019-02-12T19:38:00.217Z,102883.64
2019-02-12T19:40:28.678Z,102887.47
2019-02-12T19:42:57.167Z,102886.19
2019-02-12T19:45:25.617Z,102881.94
2019-02-12T19:47:54.089Z,102885.38
2019-02-12T19:50:22.601Z,102884.48
2019-02-12T19:52:51.044Z,102879.20
2019-02-12T19:55:19.515Z,102885.60
2019-02-12T19:57:48.008Z,102889.08
2019-02-12T20:00:20.988Z,102883.94
2019-02-12T20:02:50.392Z,102883.39
2019-02-12T20:05:19.130Z,102879.42
2019-02-12T20:07:47.581Z,102883.75
2019-02-12T20:10:16.213Z,102882.97
2019-02-12T20:12:44.713Z,102883.84
2019-02-12T20:15:15.710Z,102889.97
2019-02-12T20:17:44.163Z,102876.89
2019-02-12T20:20:13.457Z,102877.23
2019-02-12T20:22:41.909Z,102885.30
2019-02-12T20:25:11.341Z,102875.53
2019-02-12T20:27:39.897Z,102871.03
2019-02-12T20:30:15.788Z,102871.03
2019-02-12T20:32:44.262Z,102869.85
2019-02-12T20:35:17.864Z,102874.63
2019-02-12T20:37:47.504Z,102886.50
2019-02-12T20:40:16.050Z,102886.23
2019-02-12T20:42:44.529Z,102886.23
2019-02-12T20:45:17.884Z,102887.26
2019-02-12T20:47:47.935Z,102884.43
2019-02-12T20:50:18.274Z,102884.66
2019-02-12T20:52:46.711Z,102884.77
2019-02-12T20:55:15.211Z,102884.77
2019-02-12T20:57:43.745Z,102884.50
2019-02-12T21:00:23.618Z,102874.20
2019-02-12T21:02:52.127Z,102875.72
2019-02-12T21:05:20.620Z,102875.72
2019-02-12T21:07:49.103Z,102866.84
2019-02-12T21:10:21.647Z,102866.93
2019-02-12T21:12:50.119Z,102866.93
2019-02-12T21:15:22.889Z,102865.65
2019-02-12T21:17:51.379Z,102864.77
2019-02-12T21:20:19.988Z,102864.77
2019-02-12T21:22:48.755Z,102867.33
2019-02-12T21:25:17.286Z,102871.41
2019-02-12T21:27:45.750Z,102870.52
2019-02-12T21:30:19.967Z,102859.36
2019-02-12T21:32:48.476Z,102866.27
2019-02-12T21:35:16.942Z,102859.06
2019-02-12T21:37:45.398Z,102860.70
2019-02-12T21:40:20.473Z,102860.70
2019-02-12T21:42:49.062Z,102853.00
2019-02-12T21:45:17.526Z,102846.09
2019-02-12T21:47:46.112Z,102851.19
2019-02-12T21:50:14.554Z,102851.19
2019-02-12T21:52:43.011Z,102852.73
2019-02-12T21:55:16.387Z,102852.73
2019-02-12T21:57:44.850Z,102868.14
2019-02-12T22:00:19.124Z,102868.14
2019-02-12T22:02:47.620Z,102835.67
2019-02-12T22:05:16.925Z,102860.34
2019-02-12T22:07:45.427Z,102867.91
2019-02-12T22:10:19.291Z,102864.33
2019-02-12T22:12:47.752Z,102864.33
2019-02-12T22:15:16.201Z,102870.25
2019-02-12T22:17:44.690Z,102868.70
2019-02-12T22:20:15.854Z,102868.70
2019-02-12T22:22:44.294Z,102878.09
2019-02-12T22:25:12.801Z,102876.31
2019-02-12T22:27:41.271Z,102876.31
2019-02-12T22:30:26.321Z,102861.53
2019-02-12T22:32:54.778Z,102861.53
2019-02-12T22:35:23.233Z,102867.78
2019-02-12T22:37:51.717Z,102864.06
2019-02-12T22:40:20.168Z,102855.97
2019-02-12T22:42:48.949Z,102855.97
2019-02-12T22:45:21.653Z,102850.30
2019-02-12T22:47:50.187Z,102846.67
2019-02-12T22:50:18.706Z,102838.97
2019-02-12T22:52:47.200Z,102838.05
2019-02-12T22:55:15.661Z,102837.64
2019-02-12T22:57:49.255Z,102830.83
2019-02-12T23:00:33.610Z,102829.33
2019-02-12T23:03:02.076Z,102832.69
2019-02-12T23:05:30.598Z,102836.14
2019-02-12T23:07:59.086Z,102835.52
2019-02-12T23:10:27.541Z,102829.50
2019-02-12T23:12:55.992Z,102826.53
2019-02-12T23:15:24.481Z,102822.28
2019-02-12T23:17:52.935Z,102822.28
2019-02-12T23:20:21.394Z,102816.66
2019-02-12T23:22:49.891Z,102815.47
2019-02-12T23:25:18.346Z,102815.47
2019-02-12T23:27:46.794Z,102817.77
2019-02-12T23:30:15.358Z,102813.52
2019-02-12T23:32:43.882Z,102816.22
2019-02-12T23:35:12.331Z,102808.08
2019-02-12T23:37:40.820Z,102808.08
2019-02-12T23:40:09.444Z,102809.09
2019-02-12T23:42:37.894Z,102803.52
2019-02-12T23:45:08.348Z,102791.69
2019-02-12T23:47:36.808Z,102788.18
2019-02-12T23:50:07.583Z,102788.18
2019-02-12T23:52:36.056Z,102774.94
2019-02-12T23:55:05.443Z,102768.34
2019-02-12T23:57:33.890Z,102764.48
